sensor_id;sensor_type;location;lat;lon;timestamp;temperature;humidity
3086;DHT22;52812;48.960;9.108;2023-04-09T00:00:48;4.70;99.90
3086;DHT22;52812;48.960;9.108;2023-04-09T00:03:14;4.70;99.90
3086;DHT22;52812;48.960;9.108;2023-04-09T00:05:40;4.70;99.90
3086;DHT22;52812;48.960;9.108;2023-04-09T00:08:06;4.60;99.90
3086;DHT22;52812;48.960;9.108;2023-04-09T00:10:31;4.50;99.90
3086;DHT22;52812;48.960;9.108;2023-04-09T00:12:57;4.50;99.90
3086;DHT22;52812;48.960;9.108;2023-04-09T00:15:23;4.50;99.90
3086;DHT22;52812;48.960;9.108;2023-04-09T00:17:48;4.50;99.90
3086;DHT22;52812;48.960;9.108;2023-04-09T00:20:14;4.40;99.90
3086;DHT22;52812;48.960;9.108;2023-04-09T00:22:39;4.50;99.90
3086;DHT22;52812;48.960;9.108;2023-04-09T00:25:06;4.50;99.90
3086;DHT22;52812;48.960;9.108;2023-04-09T00:27:31;4.50;99.90
3086;DHT22;52812;48.960;9.108;2023-04-09T00:29:57;4.40;99.90
3086;DHT22;52812;48.960;9.108;2023-04-09T00:32:22;4.40;99.90
3086;DHT22;52812;48.960;9.108;2023-04-09T00:34:48;4.40;99.90
3086;DHT22;52812;48.960;9.108;2023-04-09T00:37:14;4.20;99.90
3086;DHT22;52812;48.960;9.108;2023-04-09T00:39:40;4.20;99.90
3086;DHT22;52812;48.960;9.108;2023-04-09T00:42:05;4.20;99.90
3086;DHT22;52812;48.960;9.108;2023-04-09T00:44:31;4.20;99.90
3086;DHT22;52812;48.960;9.108;2023-04-09T00:46:57;4.20;99.90
3086;DHT22;52812;48.960;9.108;2023-04-09T00:49:23;4.20;99.90
3086;DHT22;52812;48.960;9.108;2023-04-09T00:51:51;4.20;99.90
3086;DHT22;52812;48.960;9.108;2023-04-09T00:54:16;4.20;99.90
3086;DHT22;52812;48.960;9.108;2023-04-09T00:56:43;4.10;99.90
3086;DHT22;52812;48.960;9.108;2023-04-09T00:59:08;4.10;99.90
3086;DHT22;52812;48.960;9.108;2023-04-09T01:01:34;4.00;99.90
3086;DHT22;52812;48.960;9.108;2023-04-09T01:04:00;4.00;99.90
3086;DHT22;52812;48.960;9.108;2023-04-09T01:06:41;3.90;99.90
3086;DHT22;52812;48.960;9.108;2023-04-09T01:09:23;3.90;99.90
3086;DHT22;52812;48.960;9.108;2023-04-09T01:15:08;3.90;99.90
3086;DHT22;52812;48.960;9.108;2023-04-09T01:17:45;3.90;99.90
3086;DHT22;52812;48.960;9.108;2023-04-09T01:22:47;3.90;99.90
3086;DHT22;52812;48.960;9.108;2023-04-09T01:25:28;3.90;99.90
3086;DHT22;52812;48.960;9.108;2023-04-09T01:30:31;3.90;99.90
3086;DHT22;52812;48.960;9.108;2023-04-09T01:32:58;4.00;99.90
3086;DHT22;52812;48.960;9.108;2023-04-09T01:35:25;4.00;99.90
3086;DHT22;52812;48.960;9.108;2023-04-09T01:37:53;3.90;99.90
3086;DHT22;52812;48.960;9.108;2023-04-09T01:40:19;3.90;99.90
3086;DHT22;52812;48.960;9.108;2023-04-09T01:42:46;3.90;99.90
3086;DHT22;52812;48.960;9.108;2023-04-09T01:45:22;4.00;99.90
3086;DHT22;52812;48.960;9.108;2023-04-09T01:47:49;4.00;99.90
3086;DHT22;52812;48.960;9.108;2023-04-09T01:50:15;4.10;99.90
3086;DHT22;52812;48.960;9.108;2023-04-09T01:52:41;4.10;99.90
3086;DHT22;52812;48.960;9.108;2023-04-09T01:55:06;4.10;99.90
3086;DHT22;52812;48.960;9.108;2023-04-09T01:57:32;4.20;99.90
3086;DHT22;52812;48.960;9.108;2023-04-09T01:59:58;4.20;99.90
3086;DHT22;52812;48.960;9.108;2023-04-09T02:02:39;4.20;99.90
3086;DHT22;52812;48.960;9.108;2023-04-09T02:05:09;4.30;99.90
3086;DHT22;52812;48.960;9.108;2023-04-09T02:07:41;4.30;99.90
3086;DHT22;52812;48.960;9.108;2023-04-09T02:10:09;4.30;99.90
3086;DHT22;52812;48.960;9.108;2023-04-09T02:12:37;4.30;99.90
3086;DHT22;52812;48.960;9.108;2023-04-09T02:15:05;4.30;99.90
3086;DHT22;52812;48.960;9.108;2023-04-09T02:17:31;4.40;99.90
3086;DHT22;52812;48.960;9.108;2023-04-09T02:19:57;4.40;99.90
3086;DHT22;52812;48.960;9.108;2023-04-09T02:22:22;4.40;99.90
3086;DHT22;52812;48.960;9.108;2023-04-09T02:24:48;4.40;99.90
3086;DHT22;52812;48.960;9.108;2023-04-09T02:27:14;4.40;99.90
3086;DHT22;52812;48.960;9.108;2023-04-09T02:29:39;4.40;99.90
3086;DHT22;52812;48.960;9.108;2023-04-09T02:32:05;4.40;99.90
3086;DHT22;52812;48.960;9.108;2023-04-09T02:34:31;4.40;99.90
3086;DHT22;52812;48.960;9.108;2023-04-09T02:36:57;4.40;99.90
3086;DHT22;52812;48.960;9.108;2023-04-09T02:39:22;4.40;99.90
3086;DHT22;52812;48.960;9.108;2023-04-09T02:41:48;4.40;99.90
3086;DHT22;52812;48.960;9.108;2023-04-09T02:44:13;4.40;99.90
3086;DHT22;52812;48.960;9.108;2023-04-09T02:46:40;4.30;99.90
3086;DHT22;52812;48.960;9.108;2023-04-09T02:49:06;4.30;99.90
3086;DHT22;52812;48.960;9.108;2023-04-09T02:51:34;4.30;99.90
3086;DHT22;52812;48.960;9.108;2023-04-09T02:54:00;4.30;99.90
3086;DHT22;52812;48.960;9.108;2023-04-09T02:56:26;4.30;99.90
3086;DHT22;52812;48.960;9.108;2023-04-09T02:58:52;4.30;99.90
3086;DHT22;52812;48.960;9.108;2023-04-09T03:01:19;4.20;99.90
3086;DHT22;52812;48.960;9.108;2023-04-09T03:03:45;4.30;99.90
3086;DHT22;52812;48.960;9.108;2023-04-09T03:06:11;4.10;99.90
3086;DHT22;52812;48.960;9.108;2023-04-09T03:08:37;4.10;99.90
3086;DHT22;52812;48.960;9.108;2023-04-09T03:11:02;4.00;99.90
3086;DHT22;52812;48.960;9.108;2023-04-09T03:13:28;4.00;99.90
3086;DHT22;52812;48.960;9.108;2023-04-09T03:15:54;3.90;99.90
3086;DHT22;52812;48.960;9.108;2023-04-09T03:18:19;3.90;99.90
3086;DHT22;52812;48.960;9.108;2023-04-09T03:20:45;3.90;99.90
3086;DHT22;52812;48.960;9.108;2023-04-09T03:23:11;4.00;99.90
3086;DHT22;52812;48.960;9.108;2023-04-09T03:25:37;4.00;99.90
3086;DHT22;52812;48.960;9.108;2023-04-09T03:28:02;4.00;99.90
3086;DHT22;52812;48.960;9.108;2023-04-09T03:30:29;4.00;99.90
3086;DHT22;52812;48.960;9.108;2023-04-09T03:32:54;4.00;99.90
3086;DHT22;52812;48.960;9.108;2023-04-09T03:35:20;4.00;99.90
3086;DHT22;52812;48.960;9.108;2023-04-09T03:37:46;4.10;99.90
3086;DHT22;52812;48.960;9.108;2023-04-09T03:40:12;4.20;99.90
3086;DHT22;52812;48.960;9.108;2023-04-09T03:42:38;4.10;99.90
3086;DHT22;52812;48.960;9.108;2023-04-09T03:45:04;4.10;99.90
3086;DHT22;52812;48.960;9.108;2023-04-09T03:47:30;4.10;99.90
3086;DHT22;52812;48.960;9.108;2023-04-09T03:49:55;4.10;99.90
3086;DHT22;52812;48.960;9.108;2023-04-09T03:52:21;4.10;99.90
3086;DHT22;52812;48.960;9.108;2023-04-09T03:54:47;4.10;99.90
3086;DHT22;52812;48.960;9.108;2023-04-09T03:57:12;4.00;99.90
3086;DHT22;52812;48.960;9.108;2023-04-09T03:59:38;4.00;99.90
3086;DHT22;52812;48.960;9.108;2023-04-09T04:02:04;3.90;99.90
3086;DHT22;52812;48.960;9.108;2023-04-09T04:04:29;3.90;99.90
3086;DHT22;52812;48.960;9.108;2023-04-09T04:06:55;4.00;99.90
3086;DHT22;52812;48.960;9.108;2023-04-09T04:09:21;4.00;99.90
3086;DHT22;52812;48.960;9.108;2023-04-09T04:11:46;4.00;99.90
3086;DHT22;52812;48.960;9.108;2023-04-09T04:14:12;4.10;99.90
3086;DHT22;52812;48.960;9.108;2023-04-09T04:16:39;4.10;99.90
3086;DHT22;52812;48.960;9.108;2023-04-09T04:19:05;4.10;99.90
3086;DHT22;52812;48.960;9.108;2023-04-09T04:21:31;4.10;99.90
3086;DHT22;52812;48.960;9.108;2023-04-09T04:23:59;4.10;99.90
3086;DHT22;52812;48.960;9.108;2023-04-09T04:26:25;4.10;99.90
3086;DHT22;52812;48.960;9.108;2023-04-09T04:28:51;4.10;99.90
3086;DHT22;52812;48.960;9.108;2023-04-09T04:31:17;4.10;99.90
3086;DHT22;52812;48.960;9.108;2023-04-09T04:33:42;4.20;99.90
3086;DHT22;52812;48.960;9.108;2023-04-09T04:36:09;4.20;99.90
3086;DHT22;52812;48.960;9.108;2023-04-09T04:38:36;4.20;99.90
3086;DHT22;52812;48.960;9.108;2023-04-09T04:41:02;4.20;99.90
3086;DHT22;52812;48.960;9.108;2023-04-09T04:43:28;4.20;99.90
3086;DHT22;52812;48.960;9.108;2023-04-09T04:45:54;4.20;99.90
3086;DHT22;52812;48.960;9.108;2023-04-09T04:48:20;4.20;99.90
3086;DHT22;52812;48.960;9.108;2023-04-09T04:50:46;4.20;99.90
3086;DHT22;52812;48.960;9.108;2023-04-09T04:53:11;4.20;99.90
3086;DHT22;52812;48.960;9.108;2023-04-09T04:55:37;4.20;99.90
3086;DHT22;52812;48.960;9.108;2023-04-09T04:58:06;4.20;99.90
3086;DHT22;52812;48.960;9.108;2023-04-09T05:00:31;4.30;99.90
3086;DHT22;52812;48.960;9.108;2023-04-09T05:02:57;4.30;99.90
3086;DHT22;52812;48.960;9.108;2023-04-09T05:05:22;4.30;99.90
3086;DHT22;52812;48.960;9.108;2023-04-09T05:07:48;4.30;99.90
3086;DHT22;52812;48.960;9.108;2023-04-09T05:10:14;4.30;99.90
3086;DHT22;52812;48.960;9.108;2023-04-09T05:12:39;4.30;99.90
3086;DHT22;52812;48.960;9.108;2023-04-09T05:15:06;4.40;99.90
3086;DHT22;52812;48.960;9.108;2023-04-09T05:17:32;4.40;99.90
3086;DHT22;52812;48.960;9.108;2023-04-09T05:19:58;4.50;99.90
3086;DHT22;52812;48.960;9.108;2023-04-09T05:22:26;4.50;99.90
3086;DHT22;52812;48.960;9.108;2023-04-09T05:24:52;4.50;99.90
3086;DHT22;52812;48.960;9.108;2023-04-09T05:27:18;4.60;99.90
3086;DHT22;52812;48.960;9.108;2023-04-09T05:29:45;4.60;99.90
3086;DHT22;52812;48.960;9.108;2023-04-09T05:32:10;4.60;99.90
3086;DHT22;52812;48.960;9.108;2023-04-09T05:34:36;4.60;99.90
3086;DHT22;52812;48.960;9.108;2023-04-09T05:37:01;4.70;99.90
3086;DHT22;52812;48.960;9.108;2023-04-09T05:39:30;4.70;99.90
3086;DHT22;52812;48.960;9.108;2023-04-09T05:41:56;4.80;99.90
3086;DHT22;52812;48.960;9.108;2023-04-09T05:44:22;4.80;99.90
3086;DHT22;52812;48.960;9.108;2023-04-09T05:46:47;4.90;99.90
3086;DHT22;52812;48.960;9.108;2023-04-09T05:49:13;4.80;99.90
3086;DHT22;52812;48.960;9.108;2023-04-09T05:51:38;4.90;99.90
3086;DHT22;52812;48.960;9.108;2023-04-09T05:54:04;5.00;99.90
3086;DHT22;52812;48.960;9.108;2023-04-09T05:56:30;5.10;99.90
3086;DHT22;52812;48.960;9.108;2023-04-09T05:58:55;5.10;99.90
3086;DHT22;52812;48.960;9.108;2023-04-09T06:01:21;5.20;99.90
3086;DHT22;52812;48.960;9.108;2023-04-09T06:03:47;5.20;99.90
3086;DHT22;52812;48.960;9.108;2023-04-09T06:06:12;5.30;99.90
3086;DHT22;52812;48.960;9.108;2023-04-09T06:08:38;5.40;99.90
3086;DHT22;52812;48.960;9.108;2023-04-09T06:11:08;5.50;99.90
3086;DHT22;52812;48.960;9.108;2023-04-09T06:13:34;5.60;99.90
3086;DHT22;52812;48.960;9.108;2023-04-09T06:15:59;5.80;99.90
3086;DHT22;52812;48.960;9.108;2023-04-09T06:18:31;5.90;99.90
3086;DHT22;52812;48.960;9.108;2023-04-09T06:21:15;6.10;99.90
3086;DHT22;52812;48.960;9.108;2023-04-09T06:23:41;6.20;99.90
3086;DHT22;52812;48.960;9.108;2023-04-09T06:26:07;6.40;99.90
3086;DHT22;52812;48.960;9.108;2023-04-09T06:28:32;6.50;99.90
3086;DHT22;52812;48.960;9.108;2023-04-09T06:30:58;6.70;99.90
3086;DHT22;52812;48.960;9.108;2023-04-09T06:33:29;6.90;99.90
3086;DHT22;52812;48.960;9.108;2023-04-09T06:35:55;7.20;99.90
3086;DHT22;52812;48.960;9.108;2023-04-09T06:38:21;7.50;99.90
3086;DHT22;52812;48.960;9.108;2023-04-09T06:40:46;7.90;99.90
3086;DHT22;52812;48.960;9.108;2023-04-09T06:43:12;8.30;99.90
3086;DHT22;52812;48.960;9.108;2023-04-09T06:45:37;8.40;99.90
3086;DHT22;52812;48.960;9.108;2023-04-09T06:48:03;9.20;99.90
3086;DHT22;52812;48.960;9.108;2023-04-09T06:50:29;10.10;99.90
3086;DHT22;52812;48.960;9.108;2023-04-09T06:52:57;10.70;99.90
3086;DHT22;52812;48.960;9.108;2023-04-09T06:55:22;11.20;99.90
3086;DHT22;52812;48.960;9.108;2023-04-09T06:57:48;11.60;99.90
3086;DHT22;52812;48.960;9.108;2023-04-09T07:00:14;11.90;99.90
3086;DHT22;52812;48.960;9.108;2023-04-09T07:02:40;12.20;99.90
3086;DHT22;52812;48.960;9.108;2023-04-09T07:05:05;12.10;99.90
3086;DHT22;52812;48.960;9.108;2023-04-09T07:07:31;12.50;99.90
3086;DHT22;52812;48.960;9.108;2023-04-09T07:09:57;12.60;99.90
3086;DHT22;52812;48.960;9.108;2023-04-09T07:12:33;12.30;99.90
3086;DHT22;52812;48.960;9.108;2023-04-09T07:15:04;12.60;99.90
3086;DHT22;52812;48.960;9.108;2023-04-09T07:17:30;12.70;99.90
3086;DHT22;52812;48.960;9.108;2023-04-09T07:19:56;12.80;99.90
3086;DHT22;52812;48.960;9.108;2023-04-09T07:22:24;12.90;99.90
3086;DHT22;52812;48.960;9.108;2023-04-09T07:24:51;12.80;99.90
3086;DHT22;52812;48.960;9.108;2023-04-09T07:27:20;12.80;99.90
3086;DHT22;52812;48.960;9.108;2023-04-09T07:29:46;13.10;99.90
3086;DHT22;52812;48.960;9.108;2023-04-09T07:32:12;13.00;99.90
3086;DHT22;52812;48.960;9.108;2023-04-09T07:34:38;13.40;99.90
3086;DHT22;52812;48.960;9.108;2023-04-09T07:37:03;13.50;99.90
3086;DHT22;52812;48.960;9.108;2023-04-09T07:39:30;13.50;99.90
3086;DHT22;52812;48.960;9.108;2023-04-09T07:41:56;13.10;99.90
3086;DHT22;52812;48.960;9.108;2023-04-09T07:44:22;13.20;99.90
3086;DHT22;52812;48.960;9.108;2023-04-09T07:46:47;13.30;99.90
3086;DHT22;52812;48.960;9.108;2023-04-09T07:49:13;13.40;99.90
3086;DHT22;52812;48.960;9.108;2023-04-09T07:51:39;13.60;99.90
3086;DHT22;52812;48.960;9.108;2023-04-09T07:54:04;13.30;99.90
3086;DHT22;52812;48.960;9.108;2023-04-09T07:56:30;13.10;99.90
3086;DHT22;52812;48.960;9.108;2023-04-09T07:58:56;13.40;99.90
3086;DHT22;52812;48.960;9.108;2023-04-09T08:01:22;12.80;99.90
3086;DHT22;52812;48.960;9.108;2023-04-09T08:03:49;12.30;99.90
3086;DHT22;52812;48.960;9.108;2023-04-09T08:06:15;12.50;99.90
3086;DHT22;52812;48.960;9.108;2023-04-09T08:08:42;13.00;99.90
3086;DHT22;52812;48.960;9.108;2023-04-09T08:11:07;12.70;99.90
3086;DHT22;52812;48.960;9.108;2023-04-09T08:13:33;12.80;99.90
3086;DHT22;52812;48.960;9.108;2023-04-09T08:16:02;13.40;99.90
3086;DHT22;52812;48.960;9.108;2023-04-09T08:18:31;13.30;99.90
3086;DHT22;52812;48.960;9.108;2023-04-09T08:20:56;13.00;99.90
3086;DHT22;52812;48.960;9.108;2023-04-09T08:23:22;12.30;99.90
3086;DHT22;52812;48.960;9.108;2023-04-09T08:25:48;11.60;99.90
3086;DHT22;52812;48.960;9.108;2023-04-09T08:28:13;11.00;99.90
3086;DHT22;52812;48.960;9.108;2023-04-09T08:30:39;10.80;99.90
3086;DHT22;52812;48.960;9.108;2023-04-09T08:33:05;11.00;99.90
3086;DHT22;52812;48.960;9.108;2023-04-09T08:35:34;11.20;99.90
3086;DHT22;52812;48.960;9.108;2023-04-09T08:37:59;11.30;99.90
3086;DHT22;52812;48.960;9.108;2023-04-09T08:40:33;11.30;99.90
3086;DHT22;52812;48.960;9.108;2023-04-09T08:43:00;11.30;99.90
3086;DHT22;52812;48.960;9.108;2023-04-09T08:45:28;11.60;99.90
3086;DHT22;52812;48.960;9.108;2023-04-09T08:47:54;12.00;99.90
3086;DHT22;52812;48.960;9.108;2023-04-09T08:50:24;11.70;99.90
3086;DHT22;52812;48.960;9.108;2023-04-09T08:52:50;11.70;99.90
3086;DHT22;52812;48.960;9.108;2023-04-09T08:55:16;11.60;99.90
3086;DHT22;52812;48.960;9.108;2023-04-09T08:57:42;11.60;99.90
3086;DHT22;52812;48.960;9.108;2023-04-09T09:00:08;11.70;99.90
3086;DHT22;52812;48.960;9.108;2023-04-09T09:02:34;11.70;99.90
3086;DHT22;52812;48.960;9.108;2023-04-09T09:05:00;11.70;99.90
3086;DHT22;52812;48.960;9.108;2023-04-09T09:07:31;11.60;99.90
3086;DHT22;52812;48.960;9.108;2023-04-09T09:10:00;11.40;99.90
3086;DHT22;52812;48.960;9.108;2023-04-09T09:14:59;11.80;99.90
3086;DHT22;52812;48.960;9.108;2023-04-09T09:17:25;12.20;99.90
3086;DHT22;52812;48.960;9.108;2023-04-09T09:19:53;12.20;99.90
3086;DHT22;52812;48.960;9.108;2023-04-09T09:22:19;12.40;99.90
3086;DHT22;52812;48.960;9.108;2023-04-09T09:24:49;12.40;99.90
3086;DHT22;52812;48.960;9.108;2023-04-09T09:27:34;12.40;99.90
3086;DHT22;52812;48.960;9.108;2023-04-09T09:30:02;12.80;99.90
3086;DHT22;52812;48.960;9.108;2023-04-09T09:32:28;12.80;99.90
3086;DHT22;52812;48.960;9.108;2023-04-09T09:35:12;12.70;99.90
3086;DHT22;52812;48.960;9.108;2023-04-09T09:37:38;12.60;99.90
3086;DHT22;52812;48.960;9.108;2023-04-09T09:40:04;12.70;99.90
3086;DHT22;52812;48.960;9.108;2023-04-09T09:42:30;13.00;99.90
3086;DHT22;52812;48.960;9.108;2023-04-09T09:44:57;12.80;99.90
3086;DHT22;52812;48.960;9.108;2023-04-09T09:47:23;12.50;99.90
3086;DHT22;52812;48.960;9.108;2023-04-09T09:49:50;12.60;99.90
3086;DHT22;52812;48.960;9.108;2023-04-09T09:52:21;12.70;99.90
3086;DHT22;52812;48.960;9.108;2023-04-09T09:54:51;12.90;99.90
3086;DHT22;52812;48.960;9.108;2023-04-09T09:57:19;13.20;99.90
3086;DHT22;52812;48.960;9.108;2023-04-09T09:59:58;13.20;99.90
3086;DHT22;52812;48.960;9.108;2023-04-09T10:02:26;13.40;99.90
3086;DHT22;52812;48.960;9.108;2023-04-09T10:04:59;13.40;99.90
3086;DHT22;52812;48.960;9.108;2023-04-09T10:07:25;13.40;99.90
3086;DHT22;52812;48.960;9.108;2023-04-09T10:09:53;13.10;99.90
3086;DHT22;52812;48.960;9.108;2023-04-09T10:12:21;13.10;99.90
3086;DHT22;52812;48.960;9.108;2023-04-09T10:14:51;13.00;99.90
3086;DHT22;52812;48.960;9.108;2023-04-09T10:17:20;13.00;99.90
3086;DHT22;52812;48.960;9.108;2023-04-09T10:20:27;12.90;99.90
3086;DHT22;52812;48.960;9.108;2023-04-09T10:22:47;13.00;99.90
3086;DHT22;52812;48.960;9.108;2023-04-09T10:25:14;13.20;99.90
3086;DHT22;52812;48.960;9.108;2023-04-09T10:27:41;13.20;99.90
3086;DHT22;52812;48.960;9.108;2023-04-09T10:30:33;13.20;99.90
3086;DHT22;52812;48.960;9.108;2023-04-09T10:33:23;12.80;99.90
3086;DHT22;52812;48.960;9.108;2023-04-09T10:35:52;12.80;99.90
3086;DHT22;52812;48.960;9.108;2023-04-09T10:40:58;13.30;99.90
3086;DHT22;52812;48.960;9.108;2023-04-09T10:43:23;13.50;99.90
3086;DHT22;52812;48.960;9.108;2023-04-09T10:45:49;13.60;99.90
3086;DHT22;52812;48.960;9.108;2023-04-09T10:48:19;13.80;99.90
3086;DHT22;52812;48.960;9.108;2023-04-09T10:50:49;13.90;99.90
3086;DHT22;52812;48.960;9.108;2023-04-09T10:53:24;13.90;99.90
3086;DHT22;52812;48.960;9.108;2023-04-09T10:55:51;13.70;99.90
3086;DHT22;52812;48.960;9.108;2023-04-09T10:58:18;13.30;99.90
3086;DHT22;52812;48.960;9.108;2023-04-09T11:00:48;13.10;99.90
3086;DHT22;52812;48.960;9.108;2023-04-09T11:06:03;12.80;99.90
3086;DHT22;52812;48.960;9.108;2023-04-09T11:08:34;13.20;99.90
3086;DHT22;52812;48.960;9.108;2023-04-09T11:11:00;13.40;99.90
3086;DHT22;52812;48.960;9.108;2023-04-09T11:13:27;13.30;99.90
3086;DHT22;52812;48.960;9.108;2023-04-09T11:15:54;13.00;99.90
3086;DHT22;52812;48.960;9.108;2023-04-09T11:18:24;13.30;99.90
3086;DHT22;52812;48.960;9.108;2023-04-09T11:20:53;13.50;99.90
3086;DHT22;52812;48.960;9.108;2023-04-09T11:23:19;13.30;99.90
3086;DHT22;52812;48.960;9.108;2023-04-09T11:25:48;13.40;99.90
3086;DHT22;52812;48.960;9.108;2023-04-09T11:28:15;13.30;99.90
3086;DHT22;52812;48.960;9.108;2023-04-09T11:30:41;13.50;99.90
3086;DHT22;52812;48.960;9.108;2023-04-09T11:33:08;13.40;99.90
3086;DHT22;52812;48.960;9.108;2023-04-09T11:35:34;13.60;99.90
3086;DHT22;52812;48.960;9.108;2023-04-09T11:38:10;13.80;99.90
3086;DHT22;52812;48.960;9.108;2023-04-09T11:40:38;13.70;99.90
3086;DHT22;52812;48.960;9.108;2023-04-09T11:43:09;13.40;99.90
3086;DHT22;52812;48.960;9.108;2023-04-09T11:45:35;13.30;99.90
3086;DHT22;52812;48.960;9.108;2023-04-09T11:48:01;13.10;99.90
3086;DHT22;52812;48.960;9.108;2023-04-09T11:50:27;13.00;99.90
3086;DHT22;52812;48.960;9.108;2023-04-09T11:52:53;13.20;99.90
3086;DHT22;52812;48.960;9.108;2023-04-09T11:55:23;13.20;99.90
3086;DHT22;52812;48.960;9.108;2023-04-09T11:57:51;13.40;99.90
3086;DHT22;52812;48.960;9.108;2023-04-09T12:00:17;13.80;99.90
3086;DHT22;52812;48.960;9.108;2023-04-09T12:02:47;14.00;99.90
3086;DHT22;52812;48.960;9.108;2023-04-09T12:05:43;14.00;99.90
3086;DHT22;52812;48.960;9.108;2023-04-09T12:08:09;14.20;99.90
3086;DHT22;52812;48.960;9.108;2023-04-09T12:10:36;14.10;99.90
3086;DHT22;52812;48.960;9.108;2023-04-09T12:13:05;14.10;99.90
3086;DHT22;52812;48.960;9.108;2023-04-09T12:15:33;14.00;99.90
3086;DHT22;52812;48.960;9.108;2023-04-09T12:17:59;14.20;99.90
3086;DHT22;52812;48.960;9.108;2023-04-09T12:22:59;14.40;99.90
3086;DHT22;52812;48.960;9.108;2023-04-09T12:25:26;14.40;99.90
3086;DHT22;52812;48.960;9.108;2023-04-09T12:27:52;14.50;99.90
3086;DHT22;52812;48.960;9.108;2023-04-09T12:30:18;14.40;99.90
3086;DHT22;52812;48.960;9.108;2023-04-09T12:32:44;14.40;99.90
3086;DHT22;52812;48.960;9.108;2023-04-09T12:35:10;14.40;99.90
3086;DHT22;52812;48.960;9.108;2023-04-09T12:37:36;14.50;99.90
3086;DHT22;52812;48.960;9.108;2023-04-09T12:40:02;14.60;99.90
3086;DHT22;52812;48.960;9.108;2023-04-09T12:42:29;14.50;99.90
3086;DHT22;52812;48.960;9.108;2023-04-09T12:44:56;14.30;99.90
3086;DHT22;52812;48.960;9.108;2023-04-09T12:47:21;14.00;99.90
3086;DHT22;52812;48.960;9.108;2023-04-09T12:49:47;14.20;99.90
3086;DHT22;52812;48.960;9.108;2023-04-09T12:52:14;14.40;99.90
3086;DHT22;52812;48.960;9.108;2023-04-09T12:54:43;14.40;99.90
3086;DHT22;52812;48.960;9.108;2023-04-09T12:57:09;14.30;99.90
3086;DHT22;52812;48.960;9.108;2023-04-09T12:59:36;14.40;99.90
3086;DHT22;52812;48.960;9.108;2023-04-09T13:02:02;14.50;99.90
3086;DHT22;52812;48.960;9.108;2023-04-09T13:04:27;14.90;99.90
3086;DHT22;52812;48.960;9.108;2023-04-09T13:06:53;15.10;99.90
3086;DHT22;52812;48.960;9.108;2023-04-09T13:09:19;14.90;99.90
3086;DHT22;52812;48.960;9.108;2023-04-09T13:11:45;14.70;99.90
3086;DHT22;52812;48.960;9.108;2023-04-09T13:14:10;14.70;99.90
3086;DHT22;52812;48.960;9.108;2023-04-09T13:16:39;14.30;99.90
3086;DHT22;52812;48.960;9.108;2023-04-09T13:19:06;14.10;99.90
3086;DHT22;52812;48.960;9.108;2023-04-09T13:21:32;14.30;99.90
3086;DHT22;52812;48.960;9.108;2023-04-09T13:23:58;14.40;99.90
3086;DHT22;52812;48.960;9.108;2023-04-09T13:26:23;14.30;99.90
3086;DHT22;52812;48.960;9.108;2023-04-09T13:28:49;14.30;99.90
3086;DHT22;52812;48.960;9.108;2023-04-09T13:31:16;14.40;99.90
3086;DHT22;52812;48.960;9.108;2023-04-09T13:33:42;14.70;99.90
3086;DHT22;52812;48.960;9.108;2023-04-09T13:36:08;15.00;99.90
3086;DHT22;52812;48.960;9.108;2023-04-09T13:38:34;15.20;99.90
3086;DHT22;52812;48.960;9.108;2023-04-09T13:40:59;15.50;99.90
3086;DHT22;52812;48.960;9.108;2023-04-09T13:43:25;15.30;99.90
3086;DHT22;52812;48.960;9.108;2023-04-09T13:45:53;15.30;99.90
3086;DHT22;52812;48.960;9.108;2023-04-09T13:48:23;15.30;99.90
3086;DHT22;52812;48.960;9.108;2023-04-09T13:50:48;15.50;99.90
3086;DHT22;52812;48.960;9.108;2023-04-09T13:53:14;15.70;99.90
3086;DHT22;52812;48.960;9.108;2023-04-09T13:55:40;15.80;99.90
3086;DHT22;52812;48.960;9.108;2023-04-09T13:58:06;15.90;99.90
3086;DHT22;52812;48.960;9.108;2023-04-09T14:00:32;15.90;99.90
3086;DHT22;52812;48.960;9.108;2023-04-09T14:02:58;15.50;99.00
3086;DHT22;52812;48.960;9.108;2023-04-09T14:05:24;15.50;99.90
3086;DHT22;52812;48.960;9.108;2023-04-09T14:07:50;15.60;99.90
3086;DHT22;52812;48.960;9.108;2023-04-09T14:10:16;15.10;98.80
3086;DHT22;52812;48.960;9.108;2023-04-09T14:12:41;15.30;99.90
3086;DHT22;52812;48.960;9.108;2023-04-09T14:15:07;15.40;99.90
3086;DHT22;52812;48.960;9.108;2023-04-09T14:17:34;15.50;99.90
3086;DHT22;52812;48.960;9.108;2023-04-09T14:20:00;15.60;99.30
3086;DHT22;52812;48.960;9.108;2023-04-09T14:22:28;15.30;99.90
3086;DHT22;52812;48.960;9.108;2023-04-09T14:24:53;15.10;99.80
3086;DHT22;52812;48.960;9.108;2023-04-09T14:27:19;15.20;99.90
3086;DHT22;52812;48.960;9.108;2023-04-09T14:29:45;15.10;99.00
3086;DHT22;52812;48.960;9.108;2023-04-09T14:32:10;15.10;99.90
3086;DHT22;52812;48.960;9.108;2023-04-09T14:34:36;15.20;99.90
3086;DHT22;52812;48.960;9.108;2023-04-09T14:37:02;15.40;99.90
3086;DHT22;52812;48.960;9.108;2023-04-09T14:39:27;15.50;99.90
3086;DHT22;52812;48.960;9.108;2023-04-09T14:41:53;15.30;99.50
3086;DHT22;52812;48.960;9.108;2023-04-09T14:44:21;15.10;99.50
3086;DHT22;52812;48.960;9.108;2023-04-09T14:46:50;15.00;99.90
3086;DHT22;52812;48.960;9.108;2023-04-09T14:49:17;15.20;99.70
3086;DHT22;52812;48.960;9.108;2023-04-09T14:51:42;15.10;99.00
3086;DHT22;52812;48.960;9.108;2023-04-09T14:54:08;14.80;99.30
3086;DHT22;52812;48.960;9.108;2023-04-09T14:56:33;14.80;99.10
3086;DHT22;52812;48.960;9.108;2023-04-09T14:58:59;14.80;99.50
3086;DHT22;52812;48.960;9.108;2023-04-09T15:01:25;14.60;99.90
3086;DHT22;52812;48.960;9.108;2023-04-09T15:03:51;14.60;99.70
3086;DHT22;52812;48.960;9.108;2023-04-09T15:06:17;14.70;99.60
3086;DHT22;52812;48.960;9.108;2023-04-09T15:08:43;14.70;99.00
3086;DHT22;52812;48.960;9.108;2023-04-09T15:11:17;14.70;99.40
3086;DHT22;52812;48.960;9.108;2023-04-09T15:13:43;14.60;99.20
3086;DHT22;52812;48.960;9.108;2023-04-09T15:16:08;14.60;99.10
3086;DHT22;52812;48.960;9.108;2023-04-09T15:18:34;14.70;98.80
3086;DHT22;52812;48.960;9.108;2023-04-09T15:21:00;14.80;99.90
3086;DHT22;52812;48.960;9.108;2023-04-09T15:23:26;14.70;99.80
3086;DHT22;52812;48.960;9.108;2023-04-09T15:25:52;14.60;98.80
3086;DHT22;52812;48.960;9.108;2023-04-09T15:28:17;14.70;97.90
3086;DHT22;52812;48.960;9.108;2023-04-09T15:30:43;14.70;97.80
3086;DHT22;52812;48.960;9.108;2023-04-09T15:33:08;14.70;98.50
3086;DHT22;52812;48.960;9.108;2023-04-09T15:35:34;14.60;97.20
3086;DHT22;52812;48.960;9.108;2023-04-09T15:38:00;14.40;97.70
3086;DHT22;52812;48.960;9.108;2023-04-09T15:40:26;14.30;97.50
3086;DHT22;52812;48.960;9.108;2023-04-09T15:42:53;14.20;97.30
3086;DHT22;52812;48.960;9.108;2023-04-09T15:45:19;14.10;97.80
3086;DHT22;52812;48.960;9.108;2023-04-09T15:47:45;14.00;97.80
3086;DHT22;52812;48.960;9.108;2023-04-09T15:50:12;13.80;98.30
3086;DHT22;52812;48.960;9.108;2023-04-09T15:52:37;13.70;99.60
3086;DHT22;52812;48.960;9.108;2023-04-09T15:55:03;13.60;98.60
3086;DHT22;52812;48.960;9.108;2023-04-09T15:57:29;13.60;99.00
3086;DHT22;52812;48.960;9.108;2023-04-09T15:59:54;13.50;98.50
3086;DHT22;52812;48.960;9.108;2023-04-09T16:02:20;13.50;99.00
3086;DHT22;52812;48.960;9.108;2023-04-09T16:04:49;13.50;99.20
3086;DHT22;52812;48.960;9.108;2023-04-09T16:07:14;13.40;98.00
3086;DHT22;52812;48.960;9.108;2023-04-09T16:09:41;13.30;98.70